sensor_id;sensor_type;location;lat;lon;timestamp;P1;durP1;ratioP1;P2;durP2;ratioP2
35562;SDS011;21665;40.108;18.302;2023-04-07T00:04:11;18.35;;;15.70;;
35562;SDS011;21665;40.108;18.302;2023-04-07T00:06:37;16.38;;;14.98;;
35562;SDS011;21665;40.108;18.302;2023-04-07T00:09:05;16.48;;;14.70;;
35562;SDS011;21665;40.108;18.302;2023-04-07T00:11:31;16.90;;;14.82;;
35562;SDS011;21665;40.108;18.302;2023-04-07T00:13:58;21.60;;;15.43;;
35562;SDS011;21665;40.108;18.302;2023-04-07T00:16:24;18.80;;;15.18;;
35562;SDS011;21665;40.108;18.302;2023-04-07T00:18:50;22.10;;;16.42;;
35562;SDS011;21665;40.108;18.302;2023-04-07T00:21:17;16.77;;;15.10;;
35562;SDS011;21665;40.108;18.302;2023-04-07T00:23:43;16.38;;;14.88;;
35562;SDS011;21665;40.108;18.302;2023-04-07T00:26:11;16.83;;;15.05;;
35562;SDS011;21665;40.108;18.302;2023-04-07T00:28:40;16.50;;;14.82;;
35562;SDS011;21665;40.108;18.302;2023-04-07T00:31:07;16.92;;;15.30;;
35562;SDS011;21665;40.108;18.302;2023-04-07T00:33:34;18.30;;;15.15;;
35562;SDS011;21665;40.108;18.302;2023-04-07T00:36:00;16.27;;;14.75;;
35562;SDS011;21665;40.108;18.302;2023-04-07T00:38:26;17.15;;;15.30;;
35562;SDS011;21665;40.108;18.302;2023-04-07T00:40:56;16.75;;;15.00;;
35562;SDS011;21665;40.108;18.302;2023-04-07T00:43:26;16.95;;;15.25;;
35562;SDS011;21665;40.108;18.302;2023-04-07T00:45:53;18.30;;;14.98;;
35562;SDS011;21665;40.108;18.302;2023-04-07T00:48:20;16.15;;;14.65;;
35562;SDS011;21665;40.108;18.302;2023-04-07T00:50:46;16.65;;;14.77;;
35562;SDS011;21665;40.108;18.302;2023-04-07T00:53:13;16.15;;;14.65;;
35562;SDS011;21665;40.108;18.302;2023-04-07T00:55:40;16.25;;;14.90;;
35562;SDS011;21665;40.108;18.302;2023-04-07T00:58:06;16.08;;;14.40;;
35562;SDS011;21665;40.108;18.302;2023-04-07T01:00:35;15.40;;;14.13;;
35562;SDS011;21665;40.108;18.302;2023-04-07T01:03:12;16.15;;;14.85;;
35562;SDS011;21665;40.108;18.302;2023-04-07T01:05:51;16.15;;;14.65;;
35562;SDS011;21665;40.108;18.302;2023-04-07T01:11:07;16.42;;;14.90;;
35562;SDS011;21665;40.108;18.302;2023-04-07T01:13:56;15.30;;;13.98;;
35562;SDS011;21665;40.108;18.302;2023-04-07T01:16:41;14.50;;;13.30;;
35562;SDS011;21665;40.108;18.302;2023-04-07T01:21:55;15.30;;;13.90;;
35562;SDS011;21665;40.108;18.302;2023-04-07T01:24:39;14.90;;;13.45;;
35562;SDS011;21665;40.108;18.302;2023-04-07T01:30:01;15.07;;;13.75;;
35562;SDS011;21665;40.108;18.302;2023-04-07T01:32:29;14.65;;;13.43;;
35562;SDS011;21665;40.108;18.302;2023-04-07T01:34:57;14.57;;;13.20;;
35562;SDS011;21665;40.108;18.302;2023-04-07T01:37:25;15.15;;;13.63;;
35562;SDS011;21665;40.108;18.302;2023-04-07T01:39:53;14.60;;;13.18;;
35562;SDS011;21665;40.108;18.302;2023-04-07T01:42:19;14.65;;;13.43;;
35562;SDS011;21665;40.108;18.302;2023-04-07T01:44:47;14.57;;;13.32;;
35562;SDS011;21665;40.108;18.302;2023-04-07T01:47:15;16.17;;;12.98;;
35562;SDS011;21665;40.108;18.302;2023-04-07T01:49:42;13.85;;;12.65;;
35562;SDS011;21665;40.108;18.302;2023-04-07T01:52:10;14.27;;;12.65;;
35562;SDS011;21665;40.108;18.302;2023-04-07T01:54:37;13.25;;;12.02;;
35562;SDS011;21665;40.108;18.302;2023-04-07T01:57:04;13.88;;;12.45;;
35562;SDS011;21665;40.108;18.302;2023-04-07T01:59:31;13.65;;;12.45;;
35562;SDS011;21665;40.108;18.302;2023-04-07T02:01:59;14.80;;;12.18;;
35562;SDS011;21665;40.108;18.302;2023-04-07T02:07:41;12.40;;;11.20;;
35562;SDS011;21665;40.108;18.302;2023-04-07T02:10:11;12.55;;;11.23;;
35562;SDS011;21665;40.108;18.302;2023-04-07T02:12:40;12.13;;;10.95;;
35562;SDS011;21665;40.108;18.302;2023-04-07T02:15:14;12.07;;;10.98;;
35562;SDS011;21665;40.108;18.302;2023-04-07T02:17:46;13.00;;;11.20;;
35562;SDS011;21665;40.108;18.302;2023-04-07T02:20:14;12.52;;;10.88;;
35562;SDS011;21665;40.108;18.302;2023-04-07T02:22:42;12.85;;;10.63;;
35562;SDS011;21665;40.108;18.302;2023-04-07T02:25:23;12.57;;;11.00;;
35562;SDS011;21665;40.108;18.302;2023-04-07T02:27:53;11.32;;;10.20;;
35562;SDS011;21665;40.108;18.302;2023-04-07T02:30:20;11.45;;;10.38;;
35562;SDS011;21665;40.108;18.302;2023-04-07T02:32:50;11.38;;;10.25;;
35562;SDS011;21665;40.108;18.302;2023-04-07T02:37:49;11.15;;;10.10;;
35562;SDS011;21665;40.108;18.302;2023-04-07T02:40:16;10.95;;;9.85;;
35562;SDS011;21665;40.108;18.302;2023-04-07T02:42:43;10.85;;;9.77;;
35562;SDS011;21665;40.108;18.302;2023-04-07T02:45:10;11.88;;;10.40;;
35562;SDS011;21665;40.108;18.302;2023-04-07T02:47:37;12.95;;;10.02;;
35562;SDS011;21665;40.108;18.302;2023-04-07T02:50:03;12.32;;;10.25;;
35562;SDS011;21665;40.108;18.302;2023-04-07T02:52:33;11.45;;;9.88;;
35562;SDS011;21665;40.108;18.302;2023-04-07T02:55:03;10.50;;;9.60;;
35562;SDS011;21665;40.108;18.302;2023-04-07T02:57:30;11.30;;;10.27;;
35562;SDS011;21665;40.108;18.302;2023-04-07T03:00:00;13.90;;;9.65;;
35562;SDS011;21665;40.108;18.302;2023-04-07T03:02:41;13.27;;;10.48;;
35562;SDS011;21665;40.108;18.302;2023-04-07T03:05:08;14.30;;;10.43;;
35562;SDS011;21665;40.108;18.302;2023-04-07T03:07:35;10.88;;;9.95;;
35562;SDS011;21665;40.108;18.302;2023-04-07T03:10:02;13.45;;;10.13;;
35562;SDS011;21665;40.108;18.302;2023-04-07T03:12:31;11.27;;;10.20;;
35562;SDS011;21665;40.108;18.302;2023-04-07T03:14:57;10.80;;;9.80;;
35562;SDS011;21665;40.108;18.302;2023-04-07T03:17:25;12.35;;;10.38;;
35562;SDS011;21665;40.108;18.302;2023-04-07T03:19:52;13.18;;;10.63;;
35562;SDS011;21665;40.108;18.302;2023-04-07T03:22:19;11.13;;;10.05;;
35562;SDS011;21665;40.108;18.302;2023-04-07T03:24:50;13.15;;;10.45;;
35562;SDS011;21665;40.108;18.302;2023-04-07T03:27:17;11.30;;;10.20;;
35562;SDS011;21665;40.108;18.302;2023-04-07T03:29:47;12.30;;;10.02;;
35562;SDS011;21665;40.108;18.302;2023-04-07T03:32:16;10.90;;;9.80;;
35562;SDS011;21665;40.108;18.302;2023-04-07T03:34:42;14.30;;;9.75;;
35562;SDS011;21665;40.108;18.302;2023-04-07T03:37:09;11.43;;;9.48;;
35562;SDS011;21665;40.108;18.302;2023-04-07T03:39:36;10.82;;;9.73;;
35562;SDS011;21665;40.108;18.302;2023-04-07T03:42:18;17.20;;;10.05;;
35562;SDS011;21665;40.108;18.302;2023-04-07T03:44:46;11.65;;;9.50;;
35562;SDS011;21665;40.108;18.302;2023-04-07T03:47:12;12.18;;;9.57;;
35562;SDS011;21665;40.108;18.302;2023-04-07T03:49:39;11.05;;;9.43;;
35562;SDS011;21665;40.108;18.302;2023-04-07T03:52:06;17.38;;;9.38;;
35562;SDS011;21665;40.108;18.302;2023-04-07T03:54:33;15.35;;;9.80;;
35562;SDS011;21665;40.108;18.302;2023-04-07T03:57:00;9.93;;;8.90;;
35562;SDS011;21665;40.108;18.302;2023-04-07T03:59:29;14.88;;;9.00;;
35562;SDS011;21665;40.108;18.302;2023-04-07T04:02:00;12.20;;;8.70;;
35562;SDS011;21665;40.108;18.302;2023-04-07T04:04:27;9.60;;;8.63;;
35562;SDS011;21665;40.108;18.302;2023-04-07T04:06:54;10.13;;;8.48;;
35562;SDS011;21665;40.108;18.302;2023-04-07T04:09:31;8.82;;;7.93;;
35562;SDS011;21665;40.108;18.302;2023-04-07T04:11:58;9.80;;;8.63;;
35562;SDS011;21665;40.108;18.302;2023-04-07T04:14:24;8.82;;;8.05;;
35562;SDS011;21665;40.108;18.302;2023-04-07T04:16:56;11.18;;;8.48;;
35562;SDS011;21665;40.108;18.302;2023-04-07T04:19:27;10.43;;;8.82;;
35562;SDS011;21665;40.108;18.302;2023-04-07T04:21:56;9.52;;;8.52;;
35562;SDS011;21665;40.108;18.302;2023-04-07T04:24:25;9.48;;;8.43;;
35562;SDS011;21665;40.108;18.302;2023-04-07T04:26:57;9.38;;;8.25;;
35562;SDS011;21665;40.108;18.302;2023-04-07T04:29:24;12.00;;;8.80;;
35562;SDS011;21665;40.108;18.302;2023-04-07T04:31:52;13.30;;;8.68;;
35562;SDS011;21665;40.108;18.302;2023-04-07T04:34:20;17.50;;;8.98;;
35562;SDS011;21665;40.108;18.302;2023-04-07T04:36:47;12.48;;;8.48;;
35562;SDS011;21665;40.108;18.302;2023-04-07T04:39:16;11.48;;;8.57;;
35562;SDS011;21665;40.108;18.302;2023-04-07T04:41:44;10.75;;;8.90;;
35562;SDS011;21665;40.108;18.302;2023-04-07T04:44:11;9.75;;;8.73;;
35562;SDS011;21665;40.108;18.302;2023-04-07T04:46:39;10.43;;;9.30;;
35562;SDS011;21665;40.108;18.302;2023-04-07T04:49:06;12.48;;;9.30;;
35562;SDS011;21665;40.108;18.302;2023-04-07T04:51:34;15.82;;;10.15;;
35562;SDS011;21665;40.108;18.302;2023-04-07T04:54:10;16.60;;;9.90;;
35562;SDS011;21665;40.108;18.302;2023-04-07T04:56:37;14.60;;;9.63;;
35562;SDS011;21665;40.108;18.302;2023-04-07T04:59:03;12.27;;;9.68;;
35562;SDS011;21665;40.108;18.302;2023-04-07T05:01:54;11.13;;;9.98;;
35562;SDS011;21665;40.108;18.302;2023-04-07T05:04:20;14.40;;;10.05;;
35562;SDS011;21665;40.108;18.302;2023-04-07T05:06:56;15.13;;;10.45;;
35562;SDS011;21665;40.108;18.302;2023-04-07T05:09:26;13.38;;;12.32;;
35562;SDS011;21665;40.108;18.302;2023-04-07T05:11:53;16.52;;;14.93;;
35562;SDS011;21665;40.108;18.302;2023-04-07T05:14:23;18.55;;;17.15;;
35562;SDS011;21665;40.108;18.302;2023-04-07T05:17:01;20.20;;;18.45;;
35562;SDS011;21665;40.108;18.302;2023-04-07T05:19:28;18.08;;;16.88;;
35562;SDS011;21665;40.108;18.302;2023-04-07T05:22:00;18.88;;;17.50;;
35562;SDS011;21665;40.108;18.302;2023-04-07T05:24:30;20.13;;;18.80;;
35562;SDS011;21665;40.108;18.302;2023-04-07T05:26:59;22.67;;;20.50;;
35562;SDS011;21665;40.108;18.302;2023-04-07T05:29:29;22.02;;;20.52;;
35562;SDS011;21665;40.108;18.302;2023-04-07T05:31:56;22.15;;;20.50;;
35562;SDS011;21665;40.108;18.302;2023-04-07T05:34:23;23.70;;;22.10;;
35562;SDS011;21665;40.108;18.302;2023-04-07T05:36:53;23.10;;;21.17;;
35562;SDS011;21665;40.108;18.302;2023-04-07T05:39:20;21.42;;;19.75;;
35562;SDS011;21665;40.108;18.302;2023-04-07T05:41:50;20.90;;;19.48;;
35562;SDS011;21665;40.108;18.302;2023-04-07T05:44:17;21.23;;;19.80;;
35562;SDS011;21665;40.108;18.302;2023-04-07T05:46:44;20.02;;;18.55;;
35562;SDS011;21665;40.108;18.302;2023-04-07T05:49:12;21.90;;;19.85;;
35562;SDS011;21665;40.108;18.302;2023-04-07T05:51:39;21.00;;;19.67;;
35562;SDS011;21665;40.108;18.302;2023-04-07T05:54:10;21.50;;;19.90;;
35562;SDS011;21665;40.108;18.302;2023-04-07T05:56:37;21.08;;;19.60;;
35562;SDS011;21665;40.108;18.302;2023-04-07T05:59:13;21.90;;;20.30;;
35562;SDS011;21665;40.108;18.302;2023-04-07T06:01:40;21.83;;;20.33;;
35562;SDS011;21665;40.108;18.302;2023-04-07T06:04:09;22.00;;;20.30;;
35562;SDS011;21665;40.108;18.302;2023-04-07T06:06:35;21.90;;;20.48;;
35562;SDS011;21665;40.108;18.302;2023-04-07T06:09:03;22.15;;;20.67;;
35562;SDS011;21665;40.108;18.302;2023-04-07T06:11:30;23.05;;;21.45;;
35562;SDS011;21665;40.108;18.302;2023-04-07T06:14:01;23.35;;;21.50;;
35562;SDS011;21665;40.108;18.302;2023-04-07T06:16:30;22.42;;;20.95;;
35562;SDS011;21665;40.108;18.302;2023-04-07T06:18:56;24.25;;;22.42;;
35562;SDS011;21665;40.108;18.302;2023-04-07T06:21:23;22.80;;;21.30;;
35562;SDS011;21665;40.108;18.302;2023-04-07T06:23:51;23.55;;;21.80;;
35562;SDS011;21665;40.108;18.302;2023-04-07T06:26:18;24.58;;;22.50;;
35562;SDS011;21665;40.108;18.302;2023-04-07T06:28:46;24.80;;;22.90;;
35562;SDS011;21665;40.108;18.302;2023-04-07T06:31:13;25.15;;;23.10;;
35562;SDS011;21665;40.108;18.302;2023-04-07T06:33:40;23.92;;;22.02;;
35562;SDS011;21665;40.108;18.302;2023-04-07T06:36:13;23.17;;;21.55;;
35562;SDS011;21665;40.108;18.302;2023-04-07T06:38:39;22.90;;;21.40;;
35562;SDS011;21665;40.108;18.302;2023-04-07T06:41:05;23.65;;;21.90;;
35562;SDS011;21665;40.108;18.302;2023-04-07T06:43:36;23.42;;;21.83;;
35562;SDS011;21665;40.108;18.302;2023-04-07T06:46:03;23.90;;;21.90;;
35562;SDS011;21665;40.108;18.302;2023-04-07T06:48:30;24.08;;;22.13;;
35562;SDS011;21665;40.108;18.302;2023-04-07T06:50:56;23.60;;;21.60;;
35562;SDS011;21665;40.108;18.302;2023-04-07T06:53:23;22.95;;;21.08;;
35562;SDS011;21665;40.108;18.302;2023-04-07T06:55:50;23.40;;;21.60;;
35562;SDS011;21665;40.108;18.302;2023-04-07T06:58:16;23.83;;;22.23;;
35562;SDS011;21665;40.108;18.302;2023-04-07T07:00:43;23.38;;;21.60;;
35562;SDS011;21665;40.108;18.302;2023-04-07T07:03:09;23.30;;;21.65;;
35562;SDS011;21665;40.108;18.302;2023-04-07T07:05:42;22.83;;;21.15;;
35562;SDS011;21665;40.108;18.302;2023-04-07T07:08:09;23.40;;;21.60;;
35562;SDS011;21665;40.108;18.302;2023-04-07T07:10:37;23.42;;;21.90;;
35562;SDS011;21665;40.108;18.302;2023-04-07T07:13:04;23.75;;;21.88;;
35562;SDS011;21665;40.108;18.302;2023-04-07T07:15:30;23.33;;;21.58;;
35562;SDS011;21665;40.108;18.302;2023-04-07T07:17:57;23.50;;;21.70;;
35562;SDS011;21665;40.108;18.302;2023-04-07T07:20:23;22.15;;;20.70;;
35562;SDS011;21665;40.108;18.302;2023-04-07T07:22:50;23.38;;;21.63;;
35562;SDS011;21665;40.108;18.302;2023-04-07T19:29:16;34.15;;;26.52;;
35562;SDS011;21665;40.108;18.302;2023-04-07T19:31:42;37.53;;;27.42;;
35562;SDS011;21665;40.108;18.302;2023-04-07T19:34:09;38.83;;;30.02;;
35562;SDS011;21665;40.108;18.302;2023-04-07T19:36:36;40.53;;;30.98;;
35562;SDS011;21665;40.108;18.302;2023-04-07T19:39:02;43.90;;;33.70;;
35562;SDS011;21665;40.108;18.302;2023-04-07T19:41:29;39.67;;;31.83;;
35562;SDS011;21665;40.108;18.302;2023-04-07T19:43:56;42.05;;;30.63;;
35562;SDS011;21665;40.108;18.302;2023-04-07T19:46:23;42.00;;;30.45;;
35562;SDS011;21665;40.108;18.302;2023-04-07T19:48:50;45.22;;;33.15;;
35562;SDS011;21665;40.108;18.302;2023-04-07T19:51:16;39.60;;;31.40;;
35562;SDS011;21665;40.108;18.302;2023-04-07T19:53:43;39.58;;;31.17;;
35562;SDS011;21665;40.108;18.302;2023-04-07T19:56:10;39.70;;;30.83;;
35562;SDS011;21665;40.108;18.302;2023-04-07T19:58:38;43.08;;;30.70;;
35562;SDS011;21665;40.108;18.302;2023-04-07T20:01:18;40.25;;;32.35;;
35562;SDS011;21665;40.108;18.302;2023-04-07T20:03:44;42.83;;;32.80;;
35562;SDS011;21665;40.108;18.302;2023-04-07T20:06:11;44.20;;;34.35;;
35562;SDS011;21665;40.108;18.302;2023-04-07T20:08:39;43.03;;;33.22;;
35562;SDS011;21665;40.108;18.302;2023-04-07T20:11:06;46.03;;;35.17;;
35562;SDS011;21665;40.108;18.302;2023-04-07T20:13:36;51.03;;;34.15;;
35562;SDS011;21665;40.108;18.302;2023-04-07T20:16:05;46.45;;;35.67;;
35562;SDS011;21665;40.108;18.302;2023-04-07T20:18:33;47.40;;;34.33;;
35562;SDS011;21665;40.108;18.302;2023-04-07T20:21:00;48.00;;;35.28;;
35562;SDS011;21665;40.108;18.302;2023-04-07T20:23:27;45.10;;;32.97;;
35562;SDS011;21665;40.108;18.302;2023-04-07T20:25:54;49.72;;;34.45;;
35562;SDS011;21665;40.108;18.302;2023-04-07T20:28:21;47.95;;;33.40;;
35562;SDS011;21665;40.108;18.302;2023-04-07T20:30:49;45.30;;;32.55;;
35562;SDS011;21665;40.108;18.302;2023-04-07T20:33:16;42.63;;;32.45;;
35562;SDS011;21665;40.108;18.302;2023-04-07T20:35:42;40.50;;;31.55;;
35562;SDS011;21665;40.108;18.302;2023-04-07T20:38:09;43.05;;;32.38;;
35562;SDS011;21665;40.108;18.302;2023-04-07T20:40:36;40.72;;;32.30;;
35562;SDS011;21665;40.108;18.302;2023-04-07T20:43:02;42.20;;;31.98;;
35562;SDS011;21665;40.108;18.302;2023-04-07T20:45:30;44.03;;;34.20;;
35562;SDS011;21665;40.108;18.302;2023-04-07T20:47:57;43.85;;;35.17;;
35562;SDS011;21665;40.108;18.302;2023-04-07T20:50:24;52.60;;;36.35;;
35562;SDS011;21665;40.108;18.302;2023-04-07T20:52:50;48.95;;;35.38;;
35562;SDS011;21665;40.108;18.302;2023-04-07T20:55:18;50.88;;;36.85;;
35562;SDS011;21665;40.108;18.302;2023-04-07T20:57:45;50.90;;;35.25;;
35562;SDS011;21665;40.108;18.302;2023-04-07T21:00:13;46.70;;;35.00;;
35562;SDS011;21665;40.108;18.302;2023-04-07T21:02:40;46.38;;;33.70;;
35562;SDS011;21665;40.108;18.302;2023-04-07T21:05:07;42.63;;;33.25;;
35562;SDS011;21665;40.108;18.302;2023-04-07T21:07:34;53.08;;;39.22;;
35562;SDS011;21665;40.108;18.302;2023-04-07T21:10:01;50.00;;;36.00;;
35562;SDS011;21665;40.108;18.302;2023-04-07T21:12:28;50.55;;;34.03;;
35562;SDS011;21665;40.108;18.302;2023-04-07T21:14:54;47.83;;;32.97;;
35562;SDS011;21665;40.108;18.302;2023-04-07T21:17:21;48.80;;;33.15;;
35562;SDS011;21665;40.108;18.302;2023-04-07T21:19:47;44.30;;;32.08;;
35562;SDS011;21665;40.108;18.302;2023-04-07T21:22:14;42.08;;;31.17;;
35562;SDS011;21665;40.108;18.302;2023-04-07T21:24:41;46.67;;;31.48;;
35562;SDS011;21665;40.108;18.302;2023-04-07T21:27:07;42.78;;;30.73;;
35562;SDS011;21665;40.108;18.302;2023-04-07T21:29:34;42.45;;;31.73;;
35562;SDS011;21665;40.108;18.302;2023-04-07T21:32:00;41.35;;;30.73;;
35562;SDS011;21665;40.108;18.302;2023-04-07T21:34:27;42.45;;;31.05;;
35562;SDS011;21665;40.108;18.302;2023-04-07T21:36:57;46.58;;;33.63;;
35562;SDS011;21665;40.108;18.302;2023-04-07T21:39:23;47.17;;;34.05;;
35562;SDS011;21665;40.108;18.302;2023-04-07T21:41:50;48.85;;;32.70;;
35562;SDS011;21665;40.108;18.302;2023-04-07T21:44:17;43.88;;;31.95;;
35562;SDS011;21665;40.108;18.302;2023-04-07T21:46:46;46.15;;;32.65;;
35562;SDS011;21665;40.108;18.302;2023-04-07T21:49:13;42.67;;;32.05;;
35562;SDS011;21665;40.108;18.302;2023-04-07T21:51:42;42.83;;;33.00;;
35562;SDS011;21665;40.108;18.302;2023-04-07T21:54:09;51.92;;;33.22;;
35562;SDS011;21665;40.108;18.302;2023-04-07T21:56:35;42.70;;;30.73;;
35562;SDS011;21665;40.108;18.302;2023-04-07T21:59:02;45.17;;;31.60;;
35562;SDS011;21665;40.108;18.302;2023-04-07T22:01:29;44.33;;;30.98;;
35562;SDS011;21665;40.108;18.302;2023-04-07T22:03:58;43.28;;;31.02;;
35562;SDS011;21665;40.108;18.302;2023-04-07T22:06:25;43.90;;;31.20;;
35562;SDS011;21665;40.108;18.302;2023-04-07T22:08:52;45.80;;;31.10;;
35562;SDS011;21665;40.108;18.302;2023-04-07T22:11:19;47.13;;;31.58;;
35562;SDS011;21665;40.108;18.302;2023-04-07T22:13:45;46.10;;;32.53;;
35562;SDS011;21665;40.108;18.302;2023-04-07T22:16:12;47.30;;;31.90;;
35562;SDS011;21665;40.108;18.302;2023-04-07T22:18:39;46.92;;;31.98;;
35562;SDS011;21665;40.108;18.302;2023-04-07T22:21:06;46.78;;;32.17;;
35562;SDS011;21665;40.108;18.302;2023-04-07T22:23:32;47.90;;;32.47;;
35562;SDS011;21665;40.108;18.302;2023-04-07T22:25:59;44.53;;;31.20;;
35562;SDS011;21665;40.108;18.302;2023-04-07T22:28:26;44.63;;;31.55;;
35562;SDS011;21665;40.108;18.302;2023-04-07T22:30:52;49.28;;;33.38;;
35562;SDS011;21665;40.108;18.302;2023-04-07T22:33:19;43.38;;;30.92;;
35562;SDS011;21665;40.108;18.302;2023-04-07T22:35:47;43.80;;;30.48;;
35562;SDS011;21665;40.108;18.302;2023-04-07T22:38:14;39.58;;;30.60;;
35562;SDS011;21665;40.108;18.302;2023-04-07T22:40:43;45.72;;;32.67;;
35562;SDS011;21665;40.108;18.302;2023-04-07T22:43:10;40.25;;;30.92;;
35562;SDS011;21665;40.108;18.302;2023-04-07T22:45:36;43.40;;;30.30;;
35562;SDS011;21665;40.108;18.302;2023-04-07T22:48:03;45.17;;;30.63;;
35562;SDS011;21665;40.108;18.302;2023-04-07T22:50:29;42.78;;;31.80;;
35562;SDS011;21665;40.108;18.302;2023-04-07T22:52:56;40.80;;;30.15;;
35562;SDS011;21665;40.108;18.302;2023-04-07T22:55:23;43.60;;;30.42;;
35562;SDS011;21665;40.108;18.302;2023-04-07T22:57:49;47.47;;;30.35;;
35562;SDS011;21665;40.108;18.302;2023-04-07T23:00:16;50.53;;;30.40;;
35562;SDS011;21665;40.108;18.302;2023-04-07T23:02:42;44.80;;;30.33;;
35562;SDS011;21665;40.108;18.302;2023-04-07T23:05:09;44.92;;;31.02;;
35562;SDS011;21665;40.108;18.302;2023-04-07T23:07:35;41.08;;;29.00;;
35562;SDS011;21665;40.108;18.302;2023-04-07T23:10:02;42.75;;;30.20;;
35562;SDS011;21665;40.108;18.302;2023-04-07T23:12:29;44.08;;;29.30;;
35562;SDS011;21665;40.108;18.302;2023-04-07T23:14:56;42.38;;;29.67;;
35562;SDS011;21665;40.108;18.302;2023-04-07T23:17:23;42.90;;;30.65;;
35562;SDS011;21665;40.108;18.302;2023-04-07T23:19:49;44.10;;;30.20;;
35562;SDS011;21665;40.108;18.302;2023-04-07T23:22:15;44.92;;;29.25;;
35562;SDS011;21665;40.108;18.302;2023-04-07T23:24:42;43.17;;;29.17;;
35562;SDS011;21665;40.108;18.302;2023-04-07T23:27:09;45.08;;;30.55;;
35562;SDS011;21665;40.108;18.302;2023-04-07T23:29:35;45.30;;;31.25;;
35562;SDS011;21665;40.108;18.302;2023-04-07T23:32:02;50.47;;;32.67;;
35562;SDS011;21665;40.108;18.302;2023-04-07T23:34:29;48.35;;;33.72;;
35562;SDS011;21665;40.108;18.302;2023-04-07T23:36:55;53.63;;;35.60;;
35562;SDS011;21665;40.108;18.302;2023-04-07T23:39:21;49.00;;;35.05;;
35562;SDS011;21665;40.108;18.302;2023-04-07T23:41:48;60.08;;;37.28;;
35562;SDS011;21665;40.108;18.302;2023-04-07T23:44:15;51.33;;;37.10;;
35562;SDS011;21665;40.108;18.302;2023-04-07T23:46:42;52.75;;;35.20;;
35562;SDS011;21665;40.108;18.302;2023-04-07T23:49:08;50.40;;;34.47;;
35562;SDS011;21665;40.108;18.302;2023-04-07T23:51:34;51.15;;;35.42;;
35562;SDS011;21665;40.108;18.302;2023-04-07T23:54:01;54.35;;;36.35;;
35562;SDS011;21665;40.108;18.302;2023-04-07T23:56:28;61.97;;;38.08;;
35562;SDS011;21665;40.108;18.302;2023-04-07T23:58:54;48.72;;;35.08;;
